createdAt,value
2022-08-25T00:02:00.026Z,100.00
2022-08-25T00:04:30.886Z,100.00
2022-08-25T00:07:02.975Z,100.00
2022-08-25T00:09:33.127Z,100.00
2022-08-25T00:12:01.705Z,100.00
2022-08-25T00:14:32.779Z,100.00
2022-08-25T00:17:01.273Z,100.00
2022-08-25T00:19:33.257Z,100.00
2022-08-25T00:22:02.130Z,100.00
2022-08-25T00:24:31.034Z,100.00
2022-08-25T00:27:01.840Z,100.00
2022-08-25T00:29:31.053Z,100.00
2022-08-25T00:31:59.991Z,100.00
2022-08-25T00:34:33.057Z,100.00
2022-08-25T00:37:01.964Z,100.00
2022-08-25T00:39:30.536Z,100.00
2022-08-25T00:41:59.688Z,100.00
2022-08-25T00:44:30.635Z,100.00
2022-08-25T00:47:01.569Z,100.00
2022-08-25T00:49:35.053Z,100.00
2022-08-25T00:52:07.212Z,100.00
2022-08-25T00:54:39.073Z,100.00
2022-08-25T00:57:09.350Z,100.00
2022-08-25T00:59:37.904Z,100.00
2022-08-25T01:02:10.236Z,100.00
2022-08-25T01:04:49.208Z,100.00
2022-08-25T01:07:19.475Z,100.00
2022-08-25T01:09:51.173Z,100.00
2022-08-25T01:12:19.497Z,100.00
2022-08-25T01:14:48.086Z,100.00
2022-08-25T01:17:16.768Z,100.00
2022-08-25T01:19:46.255Z,100.00
2022-08-25T01:22:17.380Z,100.00
2022-08-25T01:24:53.906Z,100.00
2022-08-25T01:27:22.066Z,100.00
2022-08-25T01:29:51.147Z,100.00
2022-08-25T01:32:19.353Z,100.00
2022-08-25T01:34:48.078Z,100.00
2022-08-25T01:37:19.294Z,100.00
2022-08-25T01:39:47.857Z,100.00
2022-08-25T01:42:25.545Z,100.00
2022-08-25T01:44:53.691Z,100.00
2022-08-25T01:47:21.861Z,100.00
2022-08-25T01:49:50.091Z,100.00
2022-08-25T01:52:24.836Z,100.00
2022-08-25T01:54:53.044Z,100.00
2022-08-25T01:57:22.391Z,100.00
2022-08-25T01:59:50.574Z,100.00
2022-08-25T02:02:18.731Z,100.00
2022-08-25T02:04:47.811Z,100.00
2022-08-25T02:07:16.314Z,100.00
2022-08-25T02:09:45.835Z,100.00
2022-08-25T02:12:14.030Z,100.00
2022-08-25T02:14:42.447Z,100.00
2022-08-25T02:17:10.980Z,100.00
2022-08-25T02:19:39.135Z,100.00
2022-08-25T02:22:07.695Z,100.00
2022-08-25T02:24:36.141Z,100.00
2022-08-25T02:27:06.577Z,100.00
2022-08-25T02:29:34.850Z,100.00
2022-08-25T02:32:03.077Z,100.00
2022-08-25T02:34:31.399Z,100.00
2022-08-25T02:36:59.575Z,100.00
2022-08-25T02:39:27.842Z,100.00
2022-08-25T02:41:56.055Z,100.00
2022-08-25T02:44:25.622Z,100.00
2022-08-25T02:46:53.743Z,100.00
2022-08-25T02:49:21.944Z,100.00
2022-08-25T02:51:50.125Z,100.00
2022-08-25T02:54:18.321Z,100.00
2022-08-25T02:56:46.535Z,100.00
2022-08-25T02:59:14.728Z,100.00
2022-08-25T03:01:44.289Z,100.00
2022-08-25T03:04:12.974Z,100.00
2022-08-25T03:06:41.239Z,100.00
2022-08-25T03:09:10.005Z,100.00
2022-08-25T03:11:38.407Z,100.00
2022-08-25T03:14:07.582Z,100.00
2022-08-25T03:16:36.046Z,100.00
2022-08-25T03:19:06.152Z,100.00
2022-08-25T03:21:34.341Z,100.00
2022-08-25T03:24:02.438Z,100.00
2022-08-25T03:26:48.252Z,100.00
2022-08-25T03:29:17.479Z,100.00
2022-08-25T03:31:45.886Z,100.00
2022-08-25T03:34:16.960Z,100.00
2022-08-25T03:36:46.489Z,100.00
2022-08-25T03:39:15.895Z,100.00
2022-08-25T03:41:44.109Z,100.00
2022-08-25T03:44:12.497Z,100.00
2022-08-25T03:46:43.534Z,100.00
2022-08-25T03:49:15.061Z,100.00
2022-08-25T03:51:47.060Z,100.00
2022-08-25T03:54:16.196Z,100.00
2022-08-25T03:56:44.602Z,100.00
2022-08-25T03:59:13.033Z,100.00
2022-08-25T04:01:43.665Z,100.00
2022-08-25T04:04:13.903Z,100.00
2022-08-25T04:06:45.420Z,100.00
2022-08-25T04:09:14.181Z,100.00
2022-08-25T04:11:42.809Z,100.00
2022-08-25T04:14:15.751Z,100.00
2022-08-25T04:16:46.230Z,100.00
2022-08-25T04:19:14.884Z,100.00
2022-08-25T04:21:44.505Z,100.00
2022-08-25T04:24:14.153Z,100.00
2022-08-25T04:26:46.401Z,100.00
2022-08-25T04:29:17.136Z,100.00
2022-08-25T04:31:48.808Z,100.00
2022-08-25T04:34:30.742Z,100.00
2022-08-25T04:37:03.474Z,100.00
2022-08-25T04:39:32.189Z,100.00
2022-08-25T04:42:00.958Z,100.00
2022-08-25T04:44:30.290Z,100.00
2022-08-25T04:46:58.462Z,100.00
2022-08-25T04:49:26.617Z,100.00
2022-08-25T04:51:54.692Z,100.00
2022-08-25T04:54:24.442Z,100.00
2022-08-25T04:56:54.212Z,100.00
2022-08-25T04:59:29.508Z,100.00
2022-08-25T05:02:02.482Z,100.00
2022-08-25T05:04:31.559Z,100.00
2022-08-25T05:07:00.030Z,100.00
2022-08-25T05:09:32.598Z,100.00
2022-08-25T05:12:01.542Z,100.00
2022-08-25T05:14:30.454Z,100.00
2022-08-25T05:16:59.189Z,100.00
2022-08-25T05:19:27.794Z,100.00
2022-08-25T05:21:58.071Z,100.00
2022-08-25T05:24:27.044Z,100.00
2022-08-25T05:26:56.959Z,100.00
2022-08-25T05:29:25.141Z,100.00
2022-08-25T05:31:53.466Z,100.00
2022-08-25T05:34:22.223Z,100.00
2022-08-25T05:36:51.524Z,100.00
2022-08-25T05:39:19.829Z,100.00
2022-08-25T05:41:48.006Z,100.00
2022-08-25T05:44:20.841Z,100.00
2022-08-25T05:46:49.818Z,100.00
2022-08-25T05:49:18.056Z,100.00
2022-08-25T05:51:46.186Z,100.00
2022-08-25T05:54:14.421Z,100.00
2022-08-25T05:56:42.630Z,100.00
2022-08-25T05:59:10.834Z,100.00
2022-08-25T06:01:57.792Z,100.00
2022-08-25T06:04:25.982Z,100.00
2022-08-25T06:06:55.675Z,100.00
2022-08-25T06:09:24.361Z,100.00
2022-08-25T06:11:55.217Z,100.00
2022-08-25T06:14:24.968Z,100.00
2022-08-25T06:16:54.776Z,100.00
2022-08-25T06:19:23.673Z,100.00
2022-08-25T06:21:55.723Z,100.00
2022-08-25T06:24:24.728Z,100.00
2022-08-25T06:26:53.020Z,100.00
2022-08-25T06:29:21.603Z,100.00
2022-08-25T06:31:50.377Z,100.00
2022-08-25T06:34:20.486Z,100.00
2022-08-25T06:36:52.117Z,100.00
2022-08-25T06:39:20.386Z,100.00
2022-08-25T06:41:52.771Z,100.00
2022-08-25T06:44:21.167Z,100.00
2022-08-25T06:46:49.475Z,100.00
2022-08-25T06:49:19.080Z,100.00
2022-08-25T06:51:47.483Z,100.00
2022-08-25T06:54:15.694Z,100.00
2022-08-25T06:56:44.547Z,100.00
2022-08-25T06:59:12.893Z,100.00
2022-08-25T07:01:41.440Z,100.00
2022-08-25T07:04:13.250Z,100.00
2022-08-25T07:06:44.650Z,100.00
2022-08-25T07:09:14.007Z,100.00
2022-08-25T07:11:43.228Z,100.00
2022-08-25T07:14:13.298Z,100.00
2022-08-25T07:16:48.569Z,100.00
2022-08-25T07:19:20.920Z,100.00
2022-08-25T07:21:53.205Z,100.00
2022-08-25T07:24:22.759Z,100.00
2022-08-25T07:26:51.621Z,100.00
2022-08-25T07:29:31.996Z,100.00
2022-08-25T07:32:04.687Z,100.00
2022-08-25T07:34:51.920Z,100.00
2022-08-25T07:37:48.502Z,100.00
2022-08-25T07:40:14.804Z,100.00
2022-08-25T07:42:43.521Z,100.00
2022-08-25T07:45:12.944Z,100.00
2022-08-25T07:47:41.201Z,100.00
2022-08-25T07:50:11.748Z,100.00
2022-08-25T07:52:42.172Z,100.00
2022-08-25T07:55:11.660Z,100.00
2022-08-25T07:57:40.854Z,100.00
2022-08-25T08:00:10.638Z,100.00
2022-08-25T08:02:42.526Z,100.00
2022-08-25T08:05:12.579Z,100.00
2022-08-25T08:07:43.719Z,100.00
2022-08-25T08:13:05.716Z,100.00
2022-08-25T08:15:35.558Z,100.00
2022-08-25T08:18:07.309Z,100.00
2022-08-25T08:20:42.665Z,100.00
2022-08-25T08:23:13.470Z,100.00
2022-08-25T08:25:41.999Z,100.00
2022-08-25T08:28:10.141Z,100.00
2022-08-25T08:30:39.321Z,100.00
2022-08-25T08:33:11.159Z,100.00
2022-08-25T08:35:47.834Z,100.00
2022-08-25T08:38:22.031Z,100.00
2022-08-25T08:41:23.199Z,100.00
2022-08-25T08:43:57.679Z,100.00
2022-08-25T08:46:42.071Z,100.00
2022-08-25T08:52:00.533Z,58.48
2022-08-25T08:54:35.093Z,58.25
2022-08-25T08:57:10.805Z,58.64
2022-08-25T08:59:50.007Z,57.82
2022-08-25T09:02:38.570Z,58.31
2022-08-25T09:05:12.112Z,57.54
2022-08-25T09:07:48.410Z,56.56
2022-08-25T09:10:18.267Z,55.92
2022-08-25T09:12:55.570Z,55.31
2022-08-25T09:15:49.100Z,55.73
2022-08-25T09:18:26.212Z,55.38
2022-08-25T09:21:09.666Z,55.52
2022-08-25T09:23:51.780Z,55.67
2022-08-25T09:26:30.778Z,56.05
2022-08-25T09:29:06.194Z,55.60
2022-08-25T09:31:38.846Z,55.42
2022-08-25T09:34:09.148Z,52.91
2022-08-25T09:36:37.972Z,53.59
2022-08-25T09:39:09.954Z,52.93
2022-08-25T09:41:51.415Z,52.43
2022-08-25T09:44:24.437Z,51.60
2022-08-25T09:47:03.089Z,52.78
2022-08-25T09:49:39.282Z,53.32
2022-08-25T09:52:32.881Z,52.96
2022-08-25T09:55:27.030Z,52.91
2022-08-25T09:57:57.491Z,52.74
2022-08-25T10:00:28.772Z,51.81
2022-08-25T10:03:12.258Z,51.36
2022-08-25T10:05:56.152Z,51.16
2022-08-25T10:08:31.534Z,51.57
2022-08-25T10:11:02.657Z,51.50
2022-08-25T10:13:37.162Z,52.67
2022-08-25T10:16:20.272Z,51.21
2022-08-25T10:19:04.533Z,49.04
2022-08-25T10:21:33.021Z,50.63
2022-08-25T10:24:03.046Z,50.79
2022-08-25T10:26:43.935Z,49.50
2022-08-25T10:29:23.491Z,49.00
2022-08-25T10:31:58.443Z,49.00
2022-08-25T10:34:44.566Z,47.46
2022-08-25T10:37:21.520Z,47.17
2022-08-25T10:40:01.504Z,48.00
2022-08-25T10:42:37.520Z,47.64
2022-08-25T10:45:40.208Z,48.16
2022-08-25T10:48:19.998Z,47.58
2022-08-25T10:50:56.498Z,48.14
2022-08-25T10:53:29.857Z,47.32
2022-08-25T10:56:07.132Z,47.41
2022-08-25T10:59:00.357Z,47.34
2022-08-25T11:01:53.724Z,46.72
2022-08-25T11:04:28.509Z,46.63
2022-08-25T11:07:01.582Z,46.09
2022-08-25T11:09:31.923Z,45.24
2022-08-25T11:12:08.714Z,45.27
2022-08-25T11:14:43.007Z,45.65
2022-08-25T11:17:15.588Z,45.19
2022-08-25T11:19:48.785Z,45.45
2022-08-25T11:22:24.656Z,45.00
2022-08-25T11:25:04.629Z,44.69
2022-08-25T11:27:39.577Z,44.82
2022-08-25T11:30:12.496Z,44.10
2022-08-25T11:32:41.894Z,44.10
2022-08-25T11:35:13.601Z,43.62
2022-08-25T11:37:48.937Z,42.99
2022-08-25T11:40:50.161Z,43.07
2022-08-25T11:43:40.855Z,42.70
2022-08-25T11:46:27.631Z,42.62
2022-08-25T11:49:10.435Z,42.09
2022-08-25T11:51:45.049Z,41.96
2022-08-25T11:54:24.916Z,41.56
2022-08-25T11:57:00.150Z,41.15
2022-08-25T12:00:03.942Z,40.43
2022-08-25T12:02:39.584Z,40.65
2022-08-25T12:05:10.776Z,40.41
2022-08-25T12:08:19.241Z,39.18
2022-08-25T12:11:00.522Z,40.23
2022-08-25T12:13:42.764Z,38.73
2022-08-25T12:16:43.602Z,38.77
2022-08-25T12:19:28.940Z,37.84
2022-08-25T12:21:59.722Z,37.58
2022-08-25T12:24:51.947Z,38.21
2022-08-25T12:27:33.544Z,36.43
2022-08-25T12:30:06.730Z,36.93
2022-08-25T12:32:58.737Z,37.31
2022-08-25T12:35:34.535Z,37.24
2022-08-25T12:38:07.239Z,38.57
2022-08-25T12:40:40.082Z,36.46
2022-08-25T12:43:12.554Z,36.32
2022-08-25T12:45:45.810Z,35.07
2022-08-25T12:48:56.809Z,34.58
2022-08-25T12:51:28.381Z,33.88
2022-08-25T12:54:05.425Z,34.31
2022-08-25T12:56:39.414Z,34.02
2022-08-25T12:59:19.558Z,33.99
2022-08-25T13:02:03.177Z,33.55
2022-08-25T13:05:13.403Z,34.44
2022-08-25T13:08:21.254Z,35.67
2022-08-25T13:10:54.337Z,35.70
2022-08-25T13:13:39.088Z,35.75
2022-08-25T13:16:10.061Z,34.37
2022-08-25T13:18:40.216Z,34.46
2022-08-25T13:21:16.592Z,34.58
2022-08-25T13:23:51.489Z,34.47
2022-08-25T13:26:25.336Z,33.89
2022-08-25T13:28:59.232Z,33.38
2022-08-25T13:31:29.870Z,32.97
2022-08-25T13:34:00.284Z,32.74
2022-08-25T13:36:51.883Z,32.06
2022-08-25T13:39:52.631Z,31.66
2022-08-25T13:42:19.440Z,31.94
2022-08-25T13:44:52.480Z,32.71
2022-08-25T13:47:43.358Z,34.03
2022-08-25T13:50:22.936Z,34.75
2022-08-25T13:52:56.382Z,34.42
2022-08-25T13:55:28.786Z,34.54
2022-08-25T13:57:59.515Z,34.50
2022-08-25T14:00:34.577Z,34.93
2022-08-25T14:03:12.728Z,34.58
2022-08-25T14:05:44.270Z,35.13
2022-08-25T14:08:32.893Z,35.65
2022-08-25T14:11:13.882Z,35.86
2022-08-25T14:13:46.099Z,35.06
2022-08-25T14:16:20.078Z,34.16
2022-08-25T14:18:51.928Z,33.48
2022-08-25T14:21:23.731Z,32.88
2022-08-25T14:23:54.523Z,32.74
2022-08-25T14:26:25.113Z,32.84
2022-08-25T14:28:55.456Z,32.64
2022-08-25T14:31:29.079Z,32.53
2022-08-25T14:34:00.745Z,32.68
2022-08-25T14:36:31.950Z,31.97
2022-08-25T14:39:00.576Z,31.43
2022-08-25T14:41:31.259Z,32.01
2022-08-25T14:43:59.399Z,30.06
2022-08-25T14:46:30.635Z,29.92
2022-08-25T14:49:01.490Z,29.22
2022-08-25T14:51:32.889Z,30.52
2022-08-25T14:54:03.792Z,29.92
2022-08-25T14:56:34.178Z,30.70
2022-08-25T14:59:02.828Z,31.47
2022-08-25T15:01:33.212Z,31.10
2022-08-25T15:04:05.795Z,32.04
2022-08-25T15:06:36.396Z,32.04
2022-08-25T15:09:11.735Z,32.98
2022-08-25T15:11:43.882Z,32.83
2022-08-25T15:14:15.664Z,32.68
2022-08-25T15:16:49.234Z,32.38
2022-08-25T15:19:21.117Z,33.02
2022-08-25T15:21:51.896Z,32.20
2022-08-25T15:24:21.401Z,32.60
2022-08-25T15:29:29.915Z,32.77
2022-08-25T15:31:59.307Z,32.36
2022-08-25T15:34:27.600Z,31.61
2022-08-25T15:36:56.829Z,31.30
2022-08-25T15:39:26.317Z,31.76
2022-08-25T15:41:57.162Z,31.62
2022-08-25T15:44:29.181Z,31.67
2022-08-25T15:46:58.174Z,31.82
2022-08-25T15:49:29.849Z,31.39
2022-08-25T15:52:00.018Z,32.07
2022-08-25T15:54:29.268Z,32.48
2022-08-25T15:57:00.150Z,33.36
2022-08-25T15:59:29.428Z,34.22
2022-08-25T16:01:58.268Z,34.42
2022-08-25T16:04:29.169Z,34.43
2022-08-25T16:06:58.683Z,35.20
2022-08-25T16:09:27.353Z,35.64
2022-08-25T16:11:55.712Z,35.87
2022-08-25T16:14:27.846Z,36.48
2022-08-25T16:16:58.427Z,37.79
2022-08-25T16:19:28.628Z,39.13
2022-08-25T16:21:57.192Z,40.13
2022-08-25T16:24:25.862Z,40.45
2022-08-25T16:27:00.229Z,41.03
2022-08-25T16:29:41.905Z,41.84
2022-08-25T16:32:11.958Z,42.42
2022-08-25T16:34:42.786Z,42.58
2022-08-25T16:37:12.867Z,43.23
2022-08-25T16:39:44.270Z,43.29
2022-08-25T16:42:12.686Z,43.89
2022-08-25T16:44:42.438Z,44.45
2022-08-25T16:47:10.954Z,44.86
2022-08-25T16:49:43.462Z,45.22
2022-08-25T16:52:28.578Z,45.35
2022-08-25T16:55:16.260Z,45.81
2022-08-25T16:57:47.939Z,46.05
2022-08-25T17:00:23.434Z,46.44
2022-08-25T17:02:55.565Z,46.90
2022-08-25T17:05:23.790Z,47.11
2022-08-25T17:08:05.916Z,47.23
2022-08-25T17:10:36.979Z,47.60
2022-08-25T17:13:05.329Z,48.01
2022-08-25T17:15:34.918Z,48.67
2022-08-25T17:18:03.380Z,48.64
2022-08-25T17:20:33.501Z,49.46
2022-08-25T17:23:03.555Z,49.64
2022-08-25T17:25:42.856Z,49.94
2022-08-25T17:28:12.960Z,49.71
2022-08-25T17:30:43.530Z,50.39
2022-08-25T17:33:11.994Z,50.77
2022-08-25T17:35:41.474Z,50.93
2022-08-25T17:38:10.057Z,51.49
2022-08-25T17:40:38.561Z,51.49
2022-08-25T17:43:08.894Z,51.94
2022-08-25T17:45:39.081Z,51.89
2022-08-25T17:48:10.231Z,51.96
2022-08-25T17:50:39.283Z,52.36
2022-08-25T17:53:07.617Z,52.37
2022-08-25T17:55:38.018Z,52.88
2022-08-25T17:58:06.457Z,53.04
2022-08-25T18:00:42.905Z,53.34
2022-08-25T18:03:13.813Z,53.58
2022-08-25T18:05:42.093Z,53.77
2022-08-25T18:08:10.867Z,53.81
2022-08-25T18:10:39.424Z,53.83
2022-08-25T18:13:07.648Z,53.91
2022-08-25T18:15:36.518Z,54.18
2022-08-25T18:18:04.840Z,54.32
2022-08-25T18:20:34.837Z,54.37
2022-08-25T18:23:05.818Z,54.64
2022-08-25T18:25:37.784Z,54.95
2022-08-25T18:28:10.252Z,54.94
2022-08-25T18:30:39.147Z,55.27
2022-08-25T18:33:07.534Z,55.41
2022-08-25T18:35:37.964Z,55.58
2022-08-25T18:38:23.823Z,55.75
2022-08-25T18:40:56.311Z,55.77
2022-08-25T18:43:24.747Z,55.86
2022-08-25T18:45:52.857Z,55.97
2022-08-25T18:48:23.808Z,55.90
2022-08-25T18:50:56.732Z,56.23
2022-08-25T18:53:36.788Z,56.34
2022-08-25T18:56:16.328Z,56.43
2022-08-25T18:58:45.605Z,56.45
2022-08-25T19:01:14.709Z,56.46
2022-08-25T19:03:44.459Z,56.50
2022-08-25T19:06:14.078Z,56.44
2022-08-25T19:08:42.456Z,56.24
2022-08-25T19:11:10.840Z,56.35
2022-08-25T19:13:39.101Z,56.42
2022-08-25T19:16:12.444Z,56.19
2022-08-25T19:18:42.707Z,56.01
2022-08-25T19:21:11.325Z,55.97
2022-08-25T19:23:40.914Z,55.79
2022-08-25T19:26:13.842Z,55.80
2022-08-25T19:28:48.798Z,56.01
2022-08-25T19:31:18.238Z,55.82
2022-08-25T19:33:47.142Z,55.93
2022-08-25T19:36:16.509Z,55.58
2022-08-25T19:38:46.110Z,55.82
2022-08-25T19:41:15.092Z,55.67
2022-08-25T19:43:56.185Z,55.68
2022-08-25T19:46:33.320Z,55.60
2022-08-25T19:49:08.136Z,55.81
2022-08-25T19:51:38.773Z,55.88
2022-08-25T19:54:13.494Z,55.87
2022-08-25T19:56:53.830Z,55.80
2022-08-25T19:59:24.777Z,56.16
2022-08-25T20:01:53.002Z,56.13
2022-08-25T20:04:21.293Z,56.16
2022-08-25T20:06:55.484Z,56.05
2022-08-25T20:09:39.100Z,56.18
2022-08-25T20:12:12.535Z,56.18
2022-08-25T20:14:44.373Z,56.31
2022-08-25T20:17:23.053Z,56.43
2022-08-25T20:19:53.663Z,56.62
2022-08-25T20:22:25.973Z,57.00
2022-08-25T20:24:58.602Z,57.08
2022-08-25T20:27:33.059Z,57.49
2022-08-25T20:30:03.023Z,57.61
2022-08-25T20:32:33.233Z,57.30
2022-08-25T20:35:01.801Z,57.47
2022-08-25T20:37:30.237Z,57.74
2022-08-25T20:40:00.060Z,57.92
2022-08-25T20:42:29.547Z,58.17
2022-08-25T20:44:58.098Z,58.00
2022-08-25T20:47:27.112Z,57.89
2022-08-25T20:49:58.359Z,57.81
2022-08-25T20:52:27.295Z,57.88
2022-08-25T20:54:55.928Z,58.05
2022-08-25T20:57:26.577Z,58.25
2022-08-25T20:59:56.285Z,58.72
2022-08-25T21:02:24.968Z,58.97
2022-08-25T21:04:53.801Z,59.45
2022-08-25T21:07:25.818Z,60.08
2022-08-25T21:09:54.018Z,59.55
2022-08-25T21:12:22.327Z,60.17
2022-08-25T21:14:51.912Z,60.15
2022-08-25T21:17:20.845Z,60.19
2022-08-25T21:22:22.651Z,61.18
2022-08-25T21:24:51.594Z,61.68
2022-08-25T21:27:20.144Z,62.07
2022-08-25T21:29:54.853Z,60.49
2022-08-25T21:32:24.506Z,62.50
2022-08-25T21:34:54.422Z,61.90
2022-08-25T21:37:23.454Z,62.83
2022-08-25T21:39:52.020Z,63.81
2022-08-25T21:42:21.172Z,63.98
2022-08-25T21:44:50.635Z,64.81
2022-08-25T21:47:21.347Z,65.78
2022-08-25T21:49:50.802Z,65.67
2022-08-25T21:52:20.884Z,64.89
2022-08-25T21:54:49.054Z,65.16
2022-08-25T21:57:19.129Z,64.31
2022-08-25T21:59:51.785Z,64.78
2022-08-25T22:02:23.245Z,64.92
2022-08-25T22:04:53.716Z,65.06
2022-08-25T22:07:24.685Z,66.38
2022-08-25T22:09:53.746Z,66.57
2022-08-25T22:12:22.073Z,65.93
2022-08-25T22:14:50.820Z,66.01
2022-08-25T22:17:21.114Z,66.68
2022-08-25T22:19:54.207Z,67.97
2022-08-25T22:22:23.126Z,69.73
2022-08-25T22:24:53.039Z,69.45
2022-08-25T22:27:23.375Z,70.44
2022-08-25T22:29:53.009Z,69.72
2022-08-25T22:32:21.651Z,69.78
2022-08-25T22:34:54.102Z,70.46
2022-08-25T22:38:04.702Z,71.43
2022-08-25T22:40:53.621Z,72.08
2022-08-25T22:43:56.060Z,72.86
2022-08-25T22:46:37.260Z,72.90
2022-08-25T22:49:11.642Z,73.67
2022-08-25T22:51:44.667Z,73.56
2022-08-25T22:54:36.844Z,73.84
2022-08-25T22:57:19.839Z,73.88
2022-08-25T23:00:00.437Z,74.44
2022-08-25T23:03:02.227Z,75.39
2022-08-25T23:06:01.275Z,76.18
2022-08-25T23:08:55.230Z,76.76
2022-08-25T23:11:44.317Z,76.83
2022-08-25T23:14:18.062Z,76.07
2022-08-25T23:16:56.014Z,76.07
2022-08-25T23:19:32.847Z,75.57
2022-08-25T23:22:17.816Z,76.08
2022-08-25T23:25:23.176Z,77.81
2022-08-25T23:28:07.076Z,78.08
2022-08-25T23:30:36.176Z,79.25
2022-08-25T23:33:12.115Z,78.36
2022-08-25T23:35:54.261Z,77.96
2022-08-25T23:38:44.799Z,77.72
2022-08-25T23:41:32.002Z,77.41
2022-08-25T23:44:21.951Z,79.63
2022-08-25T23:46:54.185Z,80.68
2022-08-25T23:49:38.123Z,80.77
2022-08-25T23:52:17.714Z,81.16
2022-08-25T23:54:47.004Z,81.58
2022-08-25T23:57:20.602Z,81.67
